sensor_id;sensor_type;location;lat;lon;timestamp;P1;durP1;ratioP1;P2;durP2;ratioP2
62006;SDS011;47963;53.008;6.754;2022-09-09T00:01:46;14.30;;;10.52;;
62006;SDS011;47963;53.008;6.754;2022-09-09T00:05:08;12.77;;;10.10;;
62006;SDS011;47963;53.008;6.754;2022-09-09T00:07:54;12.43;;;10.00;;
62006;SDS011;47963;53.008;6.754;2022-09-09T00:10:28;11.90;;;9.98;;
62006;SDS011;47963;53.008;6.754;2022-09-09T00:18:28;13.07;;;9.88;;
62006;SDS011;47963;53.008;6.754;2022-09-09T00:21:15;13.27;;;9.35;;
62006;SDS011;47963;53.008;6.754;2022-09-09T00:23:47;12.30;;;9.88;;
62006;SDS011;47963;53.008;6.754;2022-09-09T00:28:48;13.88;;;9.88;;
62006;SDS011;47963;53.008;6.754;2022-09-09T00:31:26;13.65;;;9.57;;
62006;SDS011;47963;53.008;6.754;2022-09-09T00:33:54;10.93;;;9.00;;
62006;SDS011;47963;53.008;6.754;2022-09-09T00:36:26;12.65;;;9.15;;
62006;SDS011;47963;53.008;6.754;2022-09-09T00:38:57;12.45;;;9.25;;
62006;SDS011;47963;53.008;6.754;2022-09-09T00:41:48;12.35;;;9.57;;
62006;SDS011;47963;53.008;6.754;2022-09-09T00:44:30;11.00;;;9.13;;
62006;SDS011;47963;53.008;6.754;2022-09-09T00:52:27;12.82;;;9.57;;
62006;SDS011;47963;53.008;6.754;2022-09-09T00:58:06;12.95;;;9.45;;
62006;SDS011;47963;53.008;6.754;2022-09-09T01:00:35;12.68;;;9.23;;
62006;SDS011;47963;53.008;6.754;2022-09-09T01:06:00;13.88;;;8.93;;
62006;SDS011;47963;53.008;6.754;2022-09-09T01:12:16;13.07;;;9.35;;
62006;SDS011;47963;53.008;6.754;2022-09-09T01:17:12;12.77;;;9.18;;
62006;SDS011;47963;53.008;6.754;2022-09-09T01:19:55;13.15;;;9.00;;
62006;SDS011;47963;53.008;6.754;2022-09-09T01:22:55;12.75;;;9.50;;
62006;SDS011;47963;53.008;6.754;2022-09-09T01:25:29;11.18;;;8.82;;
62006;SDS011;47963;53.008;6.754;2022-09-09T01:28:08;12.95;;;8.45;;
62006;SDS011;47963;53.008;6.754;2022-09-09T01:30:39;11.45;;;9.30;;
62006;SDS011;47963;53.008;6.754;2022-09-09T01:33:07;14.02;;;9.48;;
62006;SDS011;47963;53.008;6.754;2022-09-09T01:36:00;12.02;;;8.75;;
62006;SDS011;47963;53.008;6.754;2022-09-09T01:38:34;12.75;;;9.52;;
62006;SDS011;47963;53.008;6.754;2022-09-09T01:41:01;14.07;;;9.77;;
62006;SDS011;47963;53.008;6.754;2022-09-09T01:43:27;14.57;;;9.50;;
62006;SDS011;47963;53.008;6.754;2022-09-09T01:45:54;15.15;;;9.52;;
62006;SDS011;47963;53.008;6.754;2022-09-09T01:48:23;13.77;;;9.35;;
62006;SDS011;47963;53.008;6.754;2022-09-09T01:50:50;12.60;;;9.77;;
62006;SDS011;47963;53.008;6.754;2022-09-09T01:53:17;12.98;;;9.25;;
62006;SDS011;47963;53.008;6.754;2022-09-09T01:55:47;16.42;;;10.50;;
62006;SDS011;47963;53.008;6.754;2022-09-09T02:00:56;15.82;;;9.77;;
62006;SDS011;47963;53.008;6.754;2022-09-09T02:03:30;14.70;;;9.70;;
62006;SDS011;47963;53.008;6.754;2022-09-09T02:13:47;11.10;;;8.77;;
62006;SDS011;47963;53.008;6.754;2022-09-09T02:16:26;13.70;;;9.38;;
62006;SDS011;47963;53.008;6.754;2022-09-09T02:19:01;15.30;;;8.60;;
62006;SDS011;47963;53.008;6.754;2022-09-09T02:21:42;13.63;;;8.73;;
62006;SDS011;47963;53.008;6.754;2022-09-09T02:24:10;15.20;;;8.98;;
62006;SDS011;47963;53.008;6.754;2022-09-09T02:26:39;13.63;;;9.63;;
62006;SDS011;47963;53.008;6.754;2022-09-09T02:29:14;13.80;;;9.20;;
62006;SDS011;47963;53.008;6.754;2022-09-09T02:31:47;13.73;;;9.02;;
62006;SDS011;47963;53.008;6.754;2022-09-09T02:34:16;12.55;;;8.63;;
62006;SDS011;47963;53.008;6.754;2022-09-09T02:36:45;11.63;;;8.60;;
62006;SDS011;47963;53.008;6.754;2022-09-09T02:39:13;16.17;;;10.32;;
62006;SDS011;47963;53.008;6.754;2022-09-09T02:41:39;15.85;;;9.68;;
62006;SDS011;47963;53.008;6.754;2022-09-09T02:44:13;12.82;;;8.85;;
62006;SDS011;47963;53.008;6.754;2022-09-09T02:52:29;13.65;;;8.98;;
62006;SDS011;47963;53.008;6.754;2022-09-09T02:58:19;16.42;;;9.55;;
62006;SDS011;47963;53.008;6.754;2022-09-09T03:00:46;12.98;;;8.07;;
62006;SDS011;47963;53.008;6.754;2022-09-09T03:03:13;14.90;;;9.00;;
62006;SDS011;47963;53.008;6.754;2022-09-09T03:05:38;13.35;;;7.97;;
62006;SDS011;47963;53.008;6.754;2022-09-09T03:08:05;14.20;;;7.80;;
62006;SDS011;47963;53.008;6.754;2022-09-09T03:10:32;12.57;;;7.72;;
62006;SDS011;47963;53.008;6.754;2022-09-09T03:12:58;13.88;;;7.75;;
62006;SDS011;47963;53.008;6.754;2022-09-09T03:15:23;14.52;;;7.15;;
62006;SDS011;47963;53.008;6.754;2022-09-09T03:17:55;13.32;;;6.55;;
62006;SDS011;47963;53.008;6.754;2022-09-09T03:20:22;12.10;;;6.90;;
62006;SDS011;47963;53.008;6.754;2022-09-09T03:22:51;10.07;;;5.90;;
62006;SDS011;47963;53.008;6.754;2022-09-09T03:25:18;10.55;;;6.65;;
62006;SDS011;47963;53.008;6.754;2022-09-09T03:27:44;11.13;;;6.53;;
62006;SDS011;47963;53.008;6.754;2022-09-09T03:30:10;12.20;;;6.68;;
62006;SDS011;47963;53.008;6.754;2022-09-09T03:32:36;11.27;;;6.75;;
62006;SDS011;47963;53.008;6.754;2022-09-09T03:35:02;11.45;;;6.90;;
62006;SDS011;47963;53.008;6.754;2022-09-09T03:37:28;10.98;;;6.85;;
62006;SDS011;47963;53.008;6.754;2022-09-09T03:39:54;10.27;;;6.78;;
62006;SDS011;47963;53.008;6.754;2022-09-09T03:42:19;12.13;;;7.00;;
62006;SDS011;47963;53.008;6.754;2022-09-09T03:44:45;12.52;;;7.05;;
62006;SDS011;47963;53.008;6.754;2022-09-09T03:47:21;11.45;;;6.75;;
62006;SDS011;47963;53.008;6.754;2022-09-09T03:49:47;12.40;;;7.15;;
62006;SDS011;47963;53.008;6.754;2022-09-09T03:52:13;11.85;;;6.43;;
62006;SDS011;47963;53.008;6.754;2022-09-09T03:54:40;12.00;;;7.90;;
62006;SDS011;47963;53.008;6.754;2022-09-09T03:57:09;11.15;;;7.18;;
62006;SDS011;47963;53.008;6.754;2022-09-09T03:59:35;10.68;;;7.72;;
62006;SDS011;47963;53.008;6.754;2022-09-09T04:02:01;12.70;;;7.55;;
62006;SDS011;47963;53.008;6.754;2022-09-09T04:04:27;10.70;;;6.63;;
62006;SDS011;47963;53.008;6.754;2022-09-09T04:06:53;12.20;;;7.05;;
62006;SDS011;47963;53.008;6.754;2022-09-09T04:09:19;10.55;;;6.40;;
62006;SDS011;47963;53.008;6.754;2022-09-09T04:11:44;9.88;;;5.78;;
62006;SDS011;47963;53.008;6.754;2022-09-09T04:14:11;10.98;;;5.55;;
62006;SDS011;47963;53.008;6.754;2022-09-09T04:16:37;9.10;;;5.80;;
62006;SDS011;47963;53.008;6.754;2022-09-09T04:19:04;11.85;;;6.63;;
62006;SDS011;47963;53.008;6.754;2022-09-09T04:21:30;10.38;;;5.90;;
62006;SDS011;47963;53.008;6.754;2022-09-09T04:23:56;11.35;;;6.80;;
62006;SDS011;47963;53.008;6.754;2022-09-09T04:26:21;10.90;;;7.25;;
62006;SDS011;47963;53.008;6.754;2022-09-09T04:28:47;11.32;;;8.13;;
62006;SDS011;47963;53.008;6.754;2022-09-09T04:31:20;12.77;;;8.45;;
62006;SDS011;47963;53.008;6.754;2022-09-09T04:33:48;12.57;;;8.20;;
62006;SDS011;47963;53.008;6.754;2022-09-09T04:36:14;13.15;;;9.23;;
62006;SDS011;47963;53.008;6.754;2022-09-09T04:38:40;11.18;;;8.15;;
62006;SDS011;47963;53.008;6.754;2022-09-09T04:41:06;13.23;;;8.60;;
62006;SDS011;47963;53.008;6.754;2022-09-09T04:43:32;14.38;;;9.00;;
62006;SDS011;47963;53.008;6.754;2022-09-09T04:45:58;12.60;;;8.68;;
62006;SDS011;47963;53.008;6.754;2022-09-09T04:48:24;16.88;;;10.43;;
62006;SDS011;47963;53.008;6.754;2022-09-09T04:51:00;13.45;;;9.63;;
62006;SDS011;47963;53.008;6.754;2022-09-09T04:53:29;12.27;;;8.95;;
62006;SDS011;47963;53.008;6.754;2022-09-09T04:56:05;16.27;;;9.75;;
62006;SDS011;47963;53.008;6.754;2022-09-09T04:58:35;14.02;;;10.05;;
62006;SDS011;47963;53.008;6.754;2022-09-09T05:01:18;14.13;;;9.65;;
62006;SDS011;47963;53.008;6.754;2022-09-09T05:03:46;13.75;;;10.18;;
62006;SDS011;47963;53.008;6.754;2022-09-09T05:06:19;14.48;;;10.35;;
62006;SDS011;47963;53.008;6.754;2022-09-09T05:08:46;14.15;;;9.82;;
62006;SDS011;47963;53.008;6.754;2022-09-09T05:11:20;12.40;;;9.80;;
62006;SDS011;47963;53.008;6.754;2022-09-09T05:13:48;13.70;;;10.18;;
62006;SDS011;47963;53.008;6.754;2022-09-09T05:16:15;13.93;;;10.00;;
62006;SDS011;47963;53.008;6.754;2022-09-09T05:18:41;14.52;;;9.95;;
62006;SDS011;47963;53.008;6.754;2022-09-09T05:21:08;13.05;;;9.90;;
62006;SDS011;47963;53.008;6.754;2022-09-09T05:26:00;13.73;;;9.75;;
62006;SDS011;47963;53.008;6.754;2022-09-09T05:28:26;14.15;;;9.48;;
62006;SDS011;47963;53.008;6.754;2022-09-09T05:30:59;12.48;;;8.52;;
62006;SDS011;47963;53.008;6.754;2022-09-09T05:33:33;15.27;;;9.57;;
62006;SDS011;47963;53.008;6.754;2022-09-09T05:36:00;13.32;;;9.15;;
62006;SDS011;47963;53.008;6.754;2022-09-09T05:38:28;13.13;;;9.15;;
62006;SDS011;47963;53.008;6.754;2022-09-09T05:40:55;15.93;;;9.50;;
62006;SDS011;47963;53.008;6.754;2022-09-09T05:43:22;12.65;;;8.85;;
62006;SDS011;47963;53.008;6.754;2022-09-09T05:45:57;15.50;;;10.80;;
62006;SDS011;47963;53.008;6.754;2022-09-09T05:48:29;12.63;;;9.52;;
62006;SDS011;47963;53.008;6.754;2022-09-09T05:51:00;13.70;;;8.93;;
62006;SDS011;47963;53.008;6.754;2022-09-09T05:53:26;12.10;;;9.13;;
62006;SDS011;47963;53.008;6.754;2022-09-09T05:56:03;12.27;;;8.63;;
62006;SDS011;47963;53.008;6.754;2022-09-09T05:58:31;11.05;;;8.48;;
62006;SDS011;47963;53.008;6.754;2022-09-09T06:01:01;13.63;;;10.40;;
62006;SDS011;47963;53.008;6.754;2022-09-09T06:03:27;14.82;;;9.70;;
62006;SDS011;47963;53.008;6.754;2022-09-09T06:05:57;15.13;;;10.07;;
62006;SDS011;47963;53.008;6.754;2022-09-09T06:08:26;15.52;;;10.27;;
62006;SDS011;47963;53.008;6.754;2022-09-09T06:10:52;12.95;;;10.18;;
62006;SDS011;47963;53.008;6.754;2022-09-09T06:13:18;15.95;;;10.25;;
62006;SDS011;47963;53.008;6.754;2022-09-09T06:15:51;12.07;;;9.77;;
62006;SDS011;47963;53.008;6.754;2022-09-09T06:18:17;15.32;;;10.60;;
62006;SDS011;47963;53.008;6.754;2022-09-09T06:20:56;14.38;;;10.35;;
62006;SDS011;47963;53.008;6.754;2022-09-09T06:23:23;13.27;;;9.63;;
62006;SDS011;47963;53.008;6.754;2022-09-09T06:25:50;12.93;;;9.52;;
62006;SDS011;47963;53.008;6.754;2022-09-09T06:28:16;13.05;;;9.88;;
62006;SDS011;47963;53.008;6.754;2022-09-09T06:30:42;14.75;;;9.60;;
62006;SDS011;47963;53.008;6.754;2022-09-09T06:33:09;14.18;;;10.27;;
62006;SDS011;47963;53.008;6.754;2022-09-09T06:35:35;12.48;;;9.70;;
62006;SDS011;47963;53.008;6.754;2022-09-09T06:38:01;13.45;;;10.95;;
62006;SDS011;47963;53.008;6.754;2022-09-09T06:40:26;11.68;;;8.95;;
62006;SDS011;47963;53.008;6.754;2022-09-09T06:42:52;13.63;;;8.57;;
62006;SDS011;47963;53.008;6.754;2022-09-09T06:45:18;14.30;;;9.13;;
62006;SDS011;47963;53.008;6.754;2022-09-09T06:47:43;13.00;;;9.27;;
62006;SDS011;47963;53.008;6.754;2022-09-09T06:50:10;13.68;;;9.68;;
62006;SDS011;47963;53.008;6.754;2022-09-09T06:52:36;12.20;;;8.73;;
62006;SDS011;47963;53.008;6.754;2022-09-09T06:55:02;13.38;;;8.68;;
62006;SDS011;47963;53.008;6.754;2022-09-09T06:57:28;12.60;;;8.98;;
62006;SDS011;47963;53.008;6.754;2022-09-09T06:59:54;13.38;;;8.82;;
62006;SDS011;47963;53.008;6.754;2022-09-09T07:02:20;12.73;;;8.95;;
62006;SDS011;47963;53.008;6.754;2022-09-09T07:04:46;12.35;;;8.77;;
62006;SDS011;47963;53.008;6.754;2022-09-09T07:07:12;12.80;;;8.32;;
62006;SDS011;47963;53.008;6.754;2022-09-09T07:09:40;11.05;;;8.93;;
62006;SDS011;47963;53.008;6.754;2022-09-09T07:12:06;11.85;;;8.68;;
62006;SDS011;47963;53.008;6.754;2022-09-09T07:14:31;11.35;;;8.02;;
62006;SDS011;47963;53.008;6.754;2022-09-09T07:16:59;12.13;;;9.02;;
62006;SDS011;47963;53.008;6.754;2022-09-09T07:19:25;12.77;;;7.82;;
62006;SDS011;47963;53.008;6.754;2022-09-09T07:21:50;11.80;;;8.43;;
62006;SDS011;47963;53.008;6.754;2022-09-09T07:24:16;11.98;;;8.48;;
62006;SDS011;47963;53.008;6.754;2022-09-09T07:26:42;11.82;;;8.38;;
62006;SDS011;47963;53.008;6.754;2022-09-09T07:29:09;11.63;;;8.20;;
62006;SDS011;47963;53.008;6.754;2022-09-09T07:31:36;11.20;;;7.40;;
62006;SDS011;47963;53.008;6.754;2022-09-09T07:34:03;10.77;;;7.28;;
62006;SDS011;47963;53.008;6.754;2022-09-09T07:36:36;11.57;;;7.80;;
62006;SDS011;47963;53.008;6.754;2022-09-09T07:39:04;11.95;;;7.45;;
62006;SDS011;47963;53.008;6.754;2022-09-09T07:41:39;12.80;;;7.22;;
62006;SDS011;47963;53.008;6.754;2022-09-09T07:44:10;12.55;;;7.40;;
62006;SDS011;47963;53.008;6.754;2022-09-09T07:46:38;11.07;;;7.30;;
62006;SDS011;47963;53.008;6.754;2022-09-09T07:49:06;10.68;;;7.10;;
62006;SDS011;47963;53.008;6.754;2022-09-09T07:51:33;12.85;;;7.13;;
62006;SDS011;47963;53.008;6.754;2022-09-09T07:54:02;11.35;;;7.10;;
62006;SDS011;47963;53.008;6.754;2022-09-09T07:56:30;12.20;;;7.93;;
62006;SDS011;47963;53.008;6.754;2022-09-09T07:58:56;12.60;;;7.32;;
62006;SDS011;47963;53.008;6.754;2022-09-09T08:01:31;10.93;;;7.28;;
62006;SDS011;47963;53.008;6.754;2022-09-09T08:04:03;10.75;;;7.40;;
62006;SDS011;47963;53.008;6.754;2022-09-09T08:06:31;12.93;;;7.53;;
62006;SDS011;47963;53.008;6.754;2022-09-09T08:09:00;11.35;;;7.40;;
62006;SDS011;47963;53.008;6.754;2022-09-09T08:11:26;12.20;;;7.30;;
62006;SDS011;47963;53.008;6.754;2022-09-09T08:13:55;12.80;;;8.05;;
62006;SDS011;47963;53.008;6.754;2022-09-09T08:16:25;14.05;;;8.38;;
62006;SDS011;47963;53.008;6.754;2022-09-09T08:18:52;13.07;;;7.60;;
62006;SDS011;47963;53.008;6.754;2022-09-09T08:21:25;12.30;;;7.68;;
62006;SDS011;47963;53.008;6.754;2022-09-09T08:23:53;12.23;;;7.55;;
62006;SDS011;47963;53.008;6.754;2022-09-09T08:26:21;11.57;;;7.00;;
62006;SDS011;47963;53.008;6.754;2022-09-09T08:28:51;12.82;;;7.47;;
62006;SDS011;47963;53.008;6.754;2022-09-09T08:33:47;11.18;;;7.03;;
62006;SDS011;47963;53.008;6.754;2022-09-09T08:36:14;13.23;;;7.00;;
62006;SDS011;47963;53.008;6.754;2022-09-09T08:38:42;14.00;;;6.78;;
62006;SDS011;47963;53.008;6.754;2022-09-09T08:43:58;11.80;;;6.68;;
62006;SDS011;47963;53.008;6.754;2022-09-09T08:52:14;11.73;;;6.57;;
62006;SDS011;47963;53.008;6.754;2022-09-09T08:54:44;11.43;;;6.40;;
62006;SDS011;47963;53.008;6.754;2022-09-09T08:57:13;11.20;;;6.65;;
62006;SDS011;47963;53.008;6.754;2022-09-09T08:59:43;13.00;;;6.75;;
62006;SDS011;47963;53.008;6.754;2022-09-09T09:02:22;11.93;;;6.82;;
62006;SDS011;47963;53.008;6.754;2022-09-09T09:10:25;12.52;;;6.18;;
62006;SDS011;47963;53.008;6.754;2022-09-09T09:13:01;11.60;;;6.00;;
62006;SDS011;47963;53.008;6.754;2022-09-09T09:15:35;12.15;;;6.10;;
62006;SDS011;47963;53.008;6.754;2022-09-09T09:18:03;10.75;;;6.05;;
62006;SDS011;47963;53.008;6.754;2022-09-09T09:20:42;11.60;;;5.78;;
62006;SDS011;47963;53.008;6.754;2022-09-09T09:23:29;12.80;;;5.80;;
62006;SDS011;47963;53.008;6.754;2022-09-09T09:26:06;12.32;;;5.85;;
62006;SDS011;47963;53.008;6.754;2022-09-09T09:31:06;13.77;;;5.97;;
62006;SDS011;47963;53.008;6.754;2022-09-09T09:36:06;12.27;;;5.70;;
62006;SDS011;47963;53.008;6.754;2022-09-09T09:38:33;11.25;;;5.78;;
62006;SDS011;47963;53.008;6.754;2022-09-09T09:41:00;11.05;;;5.28;;
62006;SDS011;47963;53.008;6.754;2022-09-09T09:43:29;13.77;;;5.03;;
62006;SDS011;47963;53.008;6.754;2022-09-09T09:45:59;11.00;;;4.75;;
62006;SDS011;47963;53.008;6.754;2022-09-09T09:48:25;13.90;;;4.70;;
62006;SDS011;47963;53.008;6.754;2022-09-09T09:50:56;11.02;;;4.85;;
62006;SDS011;47963;53.008;6.754;2022-09-09T09:53:42;12.82;;;4.47;;
62006;SDS011;47963;53.008;6.754;2022-09-09T09:56:09;14.73;;;4.60;;
62006;SDS011;47963;53.008;6.754;2022-09-09T10:01:25;13.23;;;4.97;;
62006;SDS011;47963;53.008;6.754;2022-09-09T10:04:02;11.93;;;4.32;;
62006;SDS011;47963;53.008;6.754;2022-09-09T10:06:41;12.55;;;4.78;;
62006;SDS011;47963;53.008;6.754;2022-09-09T10:09:26;10.65;;;4.10;;
62006;SDS011;47963;53.008;6.754;2022-09-09T10:11:55;13.70;;;4.32;;
62006;SDS011;47963;53.008;6.754;2022-09-09T10:22:47;10.85;;;4.05;;
62006;SDS011;47963;53.008;6.754;2022-09-09T10:25:52;12.32;;;4.03;;
62006;SDS011;47963;53.008;6.754;2022-09-09T10:33:54;11.32;;;4.10;;
62006;SDS011;47963;53.008;6.754;2022-09-09T10:36:31;9.38;;;3.05;;
62006;SDS011;47963;53.008;6.754;2022-09-09T10:44:34;11.55;;;3.33;;
62006;SDS011;47963;53.008;6.754;2022-09-09T10:56:11;10.65;;;2.92;;
62006;SDS011;47963;53.008;6.754;2022-09-09T11:01:28;10.25;;;3.10;;
62006;SDS011;47963;53.008;6.754;2022-09-09T11:04:02;10.23;;;3.00;;
62006;SDS011;47963;53.008;6.754;2022-09-09T11:06:37;10.85;;;2.60;;
62006;SDS011;47963;53.008;6.754;2022-09-09T11:09:08;12.02;;;3.13;;
62006;SDS011;47963;53.008;6.754;2022-09-09T11:11:45;10.07;;;2.53;;
62006;SDS011;47963;53.008;6.754;2022-09-09T11:17:18;9.27;;;2.42;;
62006;SDS011;47963;53.008;6.754;2022-09-09T11:19:48;8.20;;;2.20;;
62006;SDS011;47963;53.008;6.754;2022-09-09T11:27:32;7.40;;;2.22;;
62006;SDS011;47963;53.008;6.754;2022-09-09T11:35:48;9.75;;;2.47;;
62006;SDS011;47963;53.008;6.754;2022-09-09T11:38:24;8.75;;;2.00;;
62006;SDS011;47963;53.008;6.754;2022-09-09T11:40:59;7.38;;;2.03;;
62006;SDS011;47963;53.008;6.754;2022-09-09T11:43:45;8.57;;;2.20;;
62006;SDS011;47963;53.008;6.754;2022-09-09T11:46:15;9.73;;;2.38;;
62006;SDS011;47963;53.008;6.754;2022-09-09T11:48:43;7.65;;;2.10;;
62006;SDS011;47963;53.008;6.754;2022-09-09T11:56:25;7.18;;;2.40;;
62006;SDS011;47963;53.008;6.754;2022-09-09T11:59:06;10.50;;;2.28;;
62006;SDS011;47963;53.008;6.754;2022-09-09T12:01:50;10.80;;;2.50;;
62006;SDS011;47963;53.008;6.754;2022-09-09T12:04:49;8.43;;;2.72;;
62006;SDS011;47963;53.008;6.754;2022-09-09T12:10:03;11.88;;;2.80;;
62006;SDS011;47963;53.008;6.754;2022-09-09T12:12:34;9.20;;;2.45;;
62006;SDS011;47963;53.008;6.754;2022-09-09T12:17:55;10.48;;;2.72;;
62006;SDS011;47963;53.008;6.754;2022-09-09T12:20:23;8.27;;;2.22;;
62006;SDS011;47963;53.008;6.754;2022-09-09T12:23:30;8.43;;;2.22;;
62006;SDS011;47963;53.008;6.754;2022-09-09T12:26:03;9.52;;;2.35;;
62006;SDS011;47963;53.008;6.754;2022-09-09T12:31:25;10.60;;;2.30;;
62006;SDS011;47963;53.008;6.754;2022-09-09T12:33:53;7.97;;;2.28;;
62006;SDS011;47963;53.008;6.754;2022-09-09T12:36:19;9.35;;;2.30;;
62006;SDS011;47963;53.008;6.754;2022-09-09T12:38:49;7.65;;;2.15;;
62006;SDS011;47963;53.008;6.754;2022-09-09T12:41:20;8.70;;;2.13;;
62006;SDS011;47963;53.008;6.754;2022-09-09T12:44:03;11.32;;;2.10;;
62006;SDS011;47963;53.008;6.754;2022-09-09T12:46:35;9.73;;;2.28;;
62006;SDS011;47963;53.008;6.754;2022-09-09T12:49:05;8.15;;;2.00;;
62006;SDS011;47963;53.008;6.754;2022-09-09T12:51:49;8.45;;;2.20;;
62006;SDS011;47963;53.008;6.754;2022-09-09T12:54:15;7.65;;;2.17;;
62006;SDS011;47963;53.008;6.754;2022-09-09T12:56:44;8.15;;;2.00;;
62006;SDS011;47963;53.008;6.754;2022-09-09T12:59:25;8.48;;;2.10;;
62006;SDS011;47963;53.008;6.754;2022-09-09T13:01:59;8.00;;;2.22;;
62006;SDS011;47963;53.008;6.754;2022-09-09T13:04:25;8.30;;;2.30;;
62006;SDS011;47963;53.008;6.754;2022-09-09T13:06:51;9.57;;;2.10;;
62006;SDS011;47963;53.008;6.754;2022-09-09T13:09:20;7.55;;;1.63;;
62006;SDS011;47963;53.008;6.754;2022-09-09T13:11:50;9.88;;;2.22;;
62006;SDS011;47963;53.008;6.754;2022-09-09T13:14:34;8.93;;;2.30;;
62006;SDS011;47963;53.008;6.754;2022-09-09T13:17:03;8.95;;;2.40;;
62006;SDS011;47963;53.008;6.754;2022-09-09T13:19:35;8.32;;;2.13;;
62006;SDS011;47963;53.008;6.754;2022-09-09T13:25:06;8.50;;;2.30;;
62006;SDS011;47963;53.008;6.754;2022-09-09T13:28:03;8.55;;;2.03;;
62006;SDS011;47963;53.008;6.754;2022-09-09T13:30:43;9.27;;;2.25;;
62006;SDS011;47963;53.008;6.754;2022-09-09T13:33:31;7.93;;;2.22;;
62006;SDS011;47963;53.008;6.754;2022-09-09T13:36:05;7.35;;;1.85;;
62006;SDS011;47963;53.008;6.754;2022-09-09T13:38:37;7.20;;;1.80;;
62006;SDS011;47963;53.008;6.754;2022-09-09T13:41:24;8.18;;;1.70;;
62006;SDS011;47963;53.008;6.754;2022-09-09T13:44:22;7.97;;;1.95;;
62006;SDS011;47963;53.008;6.754;2022-09-09T13:47:01;7.38;;;1.98;;
62006;SDS011;47963;53.008;6.754;2022-09-09T13:49:30;8.30;;;1.50;;
62006;SDS011;47963;53.008;6.754;2022-09-09T13:52:11;7.57;;;1.92;;
62006;SDS011;47963;53.008;6.754;2022-09-09T13:54:50;6.53;;;1.80;;
62006;SDS011;47963;53.008;6.754;2022-09-09T13:57:26;8.55;;;2.03;;
62006;SDS011;47963;53.008;6.754;2022-09-09T13:59:52;7.63;;;1.80;;
62006;SDS011;47963;53.008;6.754;2022-09-09T14:02:20;8.18;;;2.00;;
62006;SDS011;47963;53.008;6.754;2022-09-09T14:04:48;8.70;;;2.00;;
62006;SDS011;47963;53.008;6.754;2022-09-09T14:07:16;8.65;;;2.20;;
62006;SDS011;47963;53.008;6.754;2022-09-09T14:09:43;8.57;;;2.10;;
62006;SDS011;47963;53.008;6.754;2022-09-09T14:12:10;9.57;;;1.95;;
62006;SDS011;47963;53.008;6.754;2022-09-09T14:14:36;7.40;;;1.80;;
62006;SDS011;47963;53.008;6.754;2022-09-09T14:17:02;8.35;;;2.25;;
62006;SDS011;47963;53.008;6.754;2022-09-09T14:19:28;8.82;;;2.03;;
62006;SDS011;47963;53.008;6.754;2022-09-09T14:21:55;6.25;;;1.95;;
62006;SDS011;47963;53.008;6.754;2022-09-09T14:24:21;7.03;;;1.80;;
62006;SDS011;47963;53.008;6.754;2022-09-09T14:26:47;7.07;;;1.67;;
62006;SDS011;47963;53.008;6.754;2022-09-09T14:29:13;6.10;;;1.67;;
62006;SDS011;47963;53.008;6.754;2022-09-09T14:31:38;6.95;;;1.73;;
62006;SDS011;47963;53.008;6.754;2022-09-09T14:34:04;6.70;;;1.58;;
62006;SDS011;47963;53.008;6.754;2022-09-09T14:36:30;6.30;;;1.50;;
62006;SDS011;47963;53.008;6.754;2022-09-09T14:38:56;6.35;;;1.55;;
62006;SDS011;47963;53.008;6.754;2022-09-09T14:41:22;7.63;;;1.80;;
62006;SDS011;47963;53.008;6.754;2022-09-09T14:43:48;7.55;;;1.85;;
62006;SDS011;47963;53.008;6.754;2022-09-09T14:46:15;5.43;;;1.50;;
62006;SDS011;47963;53.008;6.754;2022-09-09T14:48:42;6.45;;;1.58;;
62006;SDS011;47963;53.008;6.754;2022-09-09T14:51:19;6.45;;;1.70;;
62006;SDS011;47963;53.008;6.754;2022-09-09T14:53:47;5.43;;;1.30;;
62006;SDS011;47963;53.008;6.754;2022-09-09T14:56:17;5.22;;;1.10;;
62006;SDS011;47963;53.008;6.754;2022-09-09T14:58:44;7.07;;;1.20;;
62006;SDS011;47963;53.008;6.754;2022-09-09T15:01:14;4.43;;;1.05;;
62006;SDS011;47963;53.008;6.754;2022-09-09T15:03:41;5.82;;;1.20;;
62006;SDS011;47963;53.008;6.754;2022-09-09T15:06:09;3.05;;;1.00;;
62006;SDS011;47963;53.008;6.754;2022-09-09T15:08:37;6.43;;;1.40;;
62006;SDS011;47963;53.008;6.754;2022-09-09T15:11:04;4.72;;;1.20;;
62006;SDS011;47963;53.008;6.754;2022-09-09T15:13:34;3.90;;;1.05;;
62006;SDS011;47963;53.008;6.754;2022-09-09T15:16:09;5.53;;;1.50;;
62006;SDS011;47963;53.008;6.754;2022-09-09T15:18:37;4.72;;;1.23;;
62006;SDS011;47963;53.008;6.754;2022-09-09T15:21:11;4.82;;;1.33;;
62006;SDS011;47963;53.008;6.754;2022-09-09T15:23:37;5.07;;;1.63;;
62006;SDS011;47963;53.008;6.754;2022-09-09T15:26:03;4.90;;;1.40;;
62006;SDS011;47963;53.008;6.754;2022-09-09T15:28:31;5.53;;;1.52;;
62006;SDS011;47963;53.008;6.754;2022-09-09T15:31:04;5.45;;;1.42;;
62006;SDS011;47963;53.008;6.754;2022-09-09T15:33:32;4.63;;;1.33;;
62006;SDS011;47963;53.008;6.754;2022-09-09T15:35:59;6.72;;;1.52;;
62006;SDS011;47963;53.008;6.754;2022-09-09T15:38:24;5.00;;;1.48;;
62006;SDS011;47963;53.008;6.754;2022-09-09T15:40:53;6.50;;;1.83;;
62006;SDS011;47963;53.008;6.754;2022-09-09T15:43:20;5.55;;;1.85;;
62006;SDS011;47963;53.008;6.754;2022-09-09T15:45:48;7.18;;;1.90;;
62006;SDS011;47963;53.008;6.754;2022-09-09T15:48:23;6.50;;;1.70;;
62006;SDS011;47963;53.008;6.754;2022-09-09T15:51:03;5.82;;;1.52;;
62006;SDS011;47963;53.008;6.754;2022-09-09T15:53:30;6.38;;;1.40;;
62006;SDS011;47963;53.008;6.754;2022-09-09T15:55:59;5.07;;;1.63;;
62006;SDS011;47963;53.008;6.754;2022-09-09T15:58:25;5.20;;;1.70;;
62006;SDS011;47963;53.008;6.754;2022-09-09T16:00:55;6.40;;;1.90;;
62006;SDS011;47963;53.008;6.754;2022-09-09T16:06:04;6.78;;;1.98;;
62006;SDS011;47963;53.008;6.754;2022-09-09T16:08:33;8.35;;;2.13;;
62006;SDS011;47963;53.008;6.754;2022-09-09T16:11:13;6.95;;;1.95;;
62006;SDS011;47963;53.008;6.754;2022-09-09T16:13:40;7.45;;;2.03;;
62006;SDS011;47963;53.008;6.754;2022-09-09T16:16:09;5.25;;;1.63;;
62006;SDS011;47963;53.008;6.754;2022-09-09T16:18:41;8.15;;;2.03;;
62006;SDS011;47963;53.008;6.754;2022-09-09T16:21:08;6.20;;;2.20;;
62006;SDS011;47963;53.008;6.754;2022-09-09T16:23:45;6.28;;;2.13;;
62006;SDS011;47963;53.008;6.754;2022-09-09T16:26:12;6.05;;;1.88;;
62006;SDS011;47963;53.008;6.754;2022-09-09T16:28:39;6.88;;;1.90;;
62006;SDS011;47963;53.008;6.754;2022-09-09T16:31:06;5.60;;;2.20;;
62006;SDS011;47963;53.008;6.754;2022-09-09T16:33:33;6.20;;;2.10;;
62006;SDS011;47963;53.008;6.754;2022-09-09T16:36:04;5.88;;;2.08;;
62006;SDS011;47963;53.008;6.754;2022-09-09T16:38:35;5.75;;;2.30;;
62006;SDS011;47963;53.008;6.754;2022-09-09T16:41:05;6.32;;;1.98;;
62006;SDS011;47963;53.008;6.754;2022-09-09T16:43:32;7.70;;;2.30;;
62006;SDS011;47963;53.008;6.754;2022-09-09T16:46:00;7.55;;;2.20;;
62006;SDS011;47963;53.008;6.754;2022-09-09T16:48:34;6.93;;;2.22;;
62006;SDS011;47963;53.008;6.754;2022-09-09T16:51:01;6.15;;;2.17;;
62006;SDS011;47963;53.008;6.754;2022-09-09T16:53:34;6.07;;;1.92;;
62006;SDS011;47963;53.008;6.754;2022-09-09T16:56:06;7.53;;;2.40;;
62006;SDS011;47963;53.008;6.754;2022-09-09T16:58:33;7.25;;;2.38;;
62006;SDS011;47963;53.008;6.754;2022-09-09T17:00:59;6.43;;;2.25;;
62006;SDS011;47963;53.008;6.754;2022-09-09T17:03:27;5.93;;;2.20;;
62006;SDS011;47963;53.008;6.754;2022-09-09T17:05:53;6.57;;;2.10;;
62006;SDS011;47963;53.008;6.754;2022-09-09T17:08:18;7.75;;;2.33;;
62006;SDS011;47963;53.008;6.754;2022-09-09T17:10:44;7.38;;;2.13;;
62006;SDS011;47963;53.008;6.754;2022-09-09T17:13:10;8.15;;;2.30;;
62006;SDS011;47963;53.008;6.754;2022-09-09T17:15:42;7.18;;;2.30;;